sensor_id;sensor_type;location;lat;lon;timestamp;P1;durP1;ratioP1;P2;durP2;ratioP2
17844;SDS011;9047;53.486;10.218;2022-10-16T00:01:32;10.73;;;7.68;;
17844;SDS011;9047;53.486;10.218;2022-10-16T00:03:59;11.27;;;8.10;;
17844;SDS011;9047;53.486;10.218;2022-10-16T00:06:30;11.65;;;8.57;;
17844;SDS011;9047;53.486;10.218;2022-10-16T00:08:59;14.02;;;8.13;;
17844;SDS011;9047;53.486;10.218;2022-10-16T00:11:27;12.00;;;8.88;;
17844;SDS011;9047;53.486;10.218;2022-10-16T00:13:58;11.82;;;8.73;;
17844;SDS011;9047;53.486;10.218;2022-10-16T00:16:27;11.27;;;8.73;;
17844;SDS011;9047;53.486;10.218;2022-10-16T00:18:56;12.20;;;8.85;;
17844;SDS011;9047;53.486;10.218;2022-10-16T00:21:24;11.85;;;8.85;;
17844;SDS011;9047;53.486;10.218;2022-10-16T00:23:55;12.68;;;8.52;;
17844;SDS011;9047;53.486;10.218;2022-10-16T00:26:24;12.65;;;8.73;;
17844;SDS011;9047;53.486;10.218;2022-10-16T00:28:54;11.70;;;8.52;;
17844;SDS011;9047;53.486;10.218;2022-10-16T00:31:21;13.10;;;7.95;;
17844;SDS011;9047;53.486;10.218;2022-10-16T00:33:49;12.18;;;8.93;;
17844;SDS011;9047;53.486;10.218;2022-10-16T00:36:17;13.55;;;8.43;;
17844;SDS011;9047;53.486;10.218;2022-10-16T00:38:45;13.15;;;9.23;;
17844;SDS011;9047;53.486;10.218;2022-10-16T00:41:14;12.60;;;8.35;;
17844;SDS011;9047;53.486;10.218;2022-10-16T00:43:43;11.27;;;8.23;;
17844;SDS011;9047;53.486;10.218;2022-10-16T00:46:15;12.15;;;8.52;;
17844;SDS011;9047;53.486;10.218;2022-10-16T00:48:45;13.02;;;8.68;;
17844;SDS011;9047;53.486;10.218;2022-10-16T00:51:17;12.43;;;8.27;;
17844;SDS011;9047;53.486;10.218;2022-10-16T00:53:46;10.98;;;8.40;;
17844;SDS011;9047;53.486;10.218;2022-10-16T00:56:15;11.57;;;8.57;;
17844;SDS011;9047;53.486;10.218;2022-10-16T00:58:42;10.20;;;8.05;;
17844;SDS011;9047;53.486;10.218;2022-10-16T01:01:10;11.88;;;8.35;;
17844;SDS011;9047;53.486;10.218;2022-10-16T01:03:39;14.38;;;8.75;;
17844;SDS011;9047;53.486;10.218;2022-10-16T01:06:11;12.32;;;8.52;;
17844;SDS011;9047;53.486;10.218;2022-10-16T01:08:50;10.05;;;7.20;;
17844;SDS011;9047;53.486;10.218;2022-10-16T01:11:27;9.57;;;7.65;;
17844;SDS011;9047;53.486;10.218;2022-10-16T01:14:00;11.43;;;7.63;;
17844;SDS011;9047;53.486;10.218;2022-10-16T01:16:38;11.65;;;7.72;;
17844;SDS011;9047;53.486;10.218;2022-10-16T01:19:12;11.45;;;7.85;;
17844;SDS011;9047;53.486;10.218;2022-10-16T01:21:43;10.55;;;7.72;;
17844;SDS011;9047;53.486;10.218;2022-10-16T01:24:16;12.68;;;7.00;;
17844;SDS011;9047;53.486;10.218;2022-10-16T01:29:44;10.23;;;6.30;;
17844;SDS011;9047;53.486;10.218;2022-10-16T01:32:18;12.32;;;6.05;;
17844;SDS011;9047;53.486;10.218;2022-10-16T01:34:50;11.80;;;6.05;;
17844;SDS011;9047;53.486;10.218;2022-10-16T01:37:21;7.72;;;5.50;;
17844;SDS011;9047;53.486;10.218;2022-10-16T01:39:55;7.55;;;5.32;;
17844;SDS011;9047;53.486;10.218;2022-10-16T01:42:28;8.68;;;5.30;;
17844;SDS011;9047;53.486;10.218;2022-10-16T01:45:00;6.13;;;4.70;;
17844;SDS011;9047;53.486;10.218;2022-10-16T01:47:29;6.28;;;4.68;;
17844;SDS011;9047;53.486;10.218;2022-10-16T01:49:57;6.70;;;4.05;;
17844;SDS011;9047;53.486;10.218;2022-10-16T01:52:27;8.57;;;4.45;;
17844;SDS011;9047;53.486;10.218;2022-10-16T01:54:56;9.18;;;3.90;;
17844;SDS011;9047;53.486;10.218;2022-10-16T01:57:28;6.50;;;3.92;;
17844;SDS011;9047;53.486;10.218;2022-10-16T01:59:58;7.20;;;3.83;;
17844;SDS011;9047;53.486;10.218;2022-10-16T02:02:31;6.90;;;4.00;;
17844;SDS011;9047;53.486;10.218;2022-10-16T02:04:59;5.80;;;3.65;;
17844;SDS011;9047;53.486;10.218;2022-10-16T02:07:31;5.80;;;3.30;;
17844;SDS011;9047;53.486;10.218;2022-10-16T02:09:57;6.35;;;3.33;;
17844;SDS011;9047;53.486;10.218;2022-10-16T02:12:29;6.32;;;3.17;;
17844;SDS011;9047;53.486;10.218;2022-10-16T02:14:59;4.85;;;3.40;;
17844;SDS011;9047;53.486;10.218;2022-10-16T02:17:26;5.05;;;3.28;;
17844;SDS011;9047;53.486;10.218;2022-10-16T02:19:54;5.00;;;2.75;;
17844;SDS011;9047;53.486;10.218;2022-10-16T02:22:24;6.05;;;3.08;;
17844;SDS011;9047;53.486;10.218;2022-10-16T02:24:57;3.95;;;2.88;;
17844;SDS011;9047;53.486;10.218;2022-10-16T02:27:32;6.40;;;3.20;;
17844;SDS011;9047;53.486;10.218;2022-10-16T02:30:04;5.55;;;3.40;;
17844;SDS011;9047;53.486;10.218;2022-10-16T02:32:36;6.53;;;2.95;;
17844;SDS011;9047;53.486;10.218;2022-10-16T02:35:06;4.60;;;3.00;;
17844;SDS011;9047;53.486;10.218;2022-10-16T02:37:35;7.22;;;2.95;;
17844;SDS011;9047;53.486;10.218;2022-10-16T02:40:03;7.22;;;2.92;;
17844;SDS011;9047;53.486;10.218;2022-10-16T02:42:34;7.55;;;3.40;;
17844;SDS011;9047;53.486;10.218;2022-10-16T02:45:04;5.38;;;2.67;;
17844;SDS011;9047;53.486;10.218;2022-10-16T02:47:32;6.53;;;2.60;;
17844;SDS011;9047;53.486;10.218;2022-10-16T02:49:59;5.68;;;2.90;;
17844;SDS011;9047;53.486;10.218;2022-10-16T02:52:27;4.25;;;2.60;;
17844;SDS011;9047;53.486;10.218;2022-10-16T02:54:54;6.05;;;3.42;;
17844;SDS011;9047;53.486;10.218;2022-10-16T02:57:23;6.15;;;2.92;;
17844;SDS011;9047;53.486;10.218;2022-10-16T02:59:51;4.65;;;2.67;;
17844;SDS011;9047;53.486;10.218;2022-10-16T03:02:20;6.15;;;2.53;;
17844;SDS011;9047;53.486;10.218;2022-10-16T03:04:47;5.20;;;2.72;;
17844;SDS011;9047;53.486;10.218;2022-10-16T03:07:14;5.38;;;2.78;;
17844;SDS011;9047;53.486;10.218;2022-10-16T03:09:41;4.10;;;2.50;;
17844;SDS011;9047;53.486;10.218;2022-10-16T03:12:08;5.07;;;2.33;;
17844;SDS011;9047;53.486;10.218;2022-10-16T03:14:36;3.60;;;2.50;;
17844;SDS011;9047;53.486;10.218;2022-10-16T03:17:06;4.35;;;2.60;;
17844;SDS011;9047;53.486;10.218;2022-10-16T03:19:33;3.75;;;2.50;;
17844;SDS011;9047;53.486;10.218;2022-10-16T03:22:00;9.18;;;2.50;;
17844;SDS011;9047;53.486;10.218;2022-10-16T03:24:29;3.58;;;2.15;;
17844;SDS011;9047;53.486;10.218;2022-10-16T03:26:55;4.90;;;2.53;;
17844;SDS011;9047;53.486;10.218;2022-10-16T03:29:22;5.95;;;2.70;;
17844;SDS011;9047;53.486;10.218;2022-10-16T03:31:50;5.00;;;2.42;;
17844;SDS011;9047;53.486;10.218;2022-10-16T03:34:18;8.48;;;2.80;;
17844;SDS011;9047;53.486;10.218;2022-10-16T03:36:45;3.33;;;2.50;;
17844;SDS011;9047;53.486;10.218;2022-10-16T03:39:12;3.83;;;2.30;;
17844;SDS011;9047;53.486;10.218;2022-10-16T03:41:39;5.47;;;2.25;;
17844;SDS011;9047;53.486;10.218;2022-10-16T03:44:06;4.47;;;2.38;;
17844;SDS011;9047;53.486;10.218;2022-10-16T03:46:33;3.47;;;2.10;;
17844;SDS011;9047;53.486;10.218;2022-10-16T03:49:00;4.35;;;2.55;;
17844;SDS011;9047;53.486;10.218;2022-10-16T03:51:30;6.57;;;2.65;;
17844;SDS011;9047;53.486;10.218;2022-10-16T03:53:57;5.72;;;2.53;;
17844;SDS011;9047;53.486;10.218;2022-10-16T03:56:23;5.45;;;2.40;;
17844;SDS011;9047;53.486;10.218;2022-10-16T03:58:50;4.10;;;2.20;;
17844;SDS011;9047;53.486;10.218;2022-10-16T04:01:17;5.88;;;2.40;;
17844;SDS011;9047;53.486;10.218;2022-10-16T04:03:44;4.68;;;2.20;;
17844;SDS011;9047;53.486;10.218;2022-10-16T04:06:10;2.95;;;1.90;;
17844;SDS011;9047;53.486;10.218;2022-10-16T04:08:39;4.03;;;2.20;;
17844;SDS011;9047;53.486;10.218;2022-10-16T04:11:08;3.08;;;2.10;;
17844;SDS011;9047;53.486;10.218;2022-10-16T04:13:34;5.20;;;2.13;;
17844;SDS011;9047;53.486;10.218;2022-10-16T04:16:01;2.70;;;1.98;;
17844;SDS011;9047;53.486;10.218;2022-10-16T04:18:30;3.45;;;2.10;;
17844;SDS011;9047;53.486;10.218;2022-10-16T04:21:01;3.97;;;2.20;;
17844;SDS011;9047;53.486;10.218;2022-10-16T04:23:28;3.30;;;2.00;;
17844;SDS011;9047;53.486;10.218;2022-10-16T04:25:57;5.30;;;2.00;;
17844;SDS011;9047;53.486;10.218;2022-10-16T04:28:24;5.25;;;1.83;;
17844;SDS011;9047;53.486;10.218;2022-10-16T04:30:51;4.50;;;1.80;;
17844;SDS011;9047;53.486;10.218;2022-10-16T04:33:18;3.30;;;1.75;;
17844;SDS011;9047;53.486;10.218;2022-10-16T04:35:45;3.15;;;1.80;;
17844;SDS011;9047;53.486;10.218;2022-10-16T04:38:12;3.53;;;2.00;;
17844;SDS011;9047;53.486;10.218;2022-10-16T04:40:39;5.70;;;2.03;;
17844;SDS011;9047;53.486;10.218;2022-10-16T04:43:09;5.88;;;2.20;;
17844;SDS011;9047;53.486;10.218;2022-10-16T04:45:36;4.95;;;1.80;;
17844;SDS011;9047;53.486;10.218;2022-10-16T04:48:03;4.60;;;1.75;;
17844;SDS011;9047;53.486;10.218;2022-10-16T04:50:30;5.25;;;2.00;;
17844;SDS011;9047;53.486;10.218;2022-10-16T04:52:57;3.28;;;1.95;;
17844;SDS011;9047;53.486;10.218;2022-10-16T04:55:24;5.68;;;1.95;;
17844;SDS011;9047;53.486;10.218;2022-10-16T04:57:51;4.40;;;1.80;;
17844;SDS011;9047;53.486;10.218;2022-10-16T05:00:19;4.65;;;2.10;;
17844;SDS011;9047;53.486;10.218;2022-10-16T05:02:47;7.65;;;2.30;;
17844;SDS011;9047;53.486;10.218;2022-10-16T05:05:15;5.35;;;2.10;;
17844;SDS011;9047;53.486;10.218;2022-10-16T05:07:44;6.05;;;2.28;;
17844;SDS011;9047;53.486;10.218;2022-10-16T05:10:11;3.58;;;2.22;;
17844;SDS011;9047;53.486;10.218;2022-10-16T05:12:38;7.05;;;2.28;;
17844;SDS011;9047;53.486;10.218;2022-10-16T05:15:05;4.10;;;2.50;;
17844;SDS011;9047;53.486;10.218;2022-10-16T05:17:33;6.10;;;2.22;;
17844;SDS011;9047;53.486;10.218;2022-10-16T05:20:01;7.20;;;2.42;;
17844;SDS011;9047;53.486;10.218;2022-10-16T05:22:28;4.03;;;2.20;;
17844;SDS011;9047;53.486;10.218;2022-10-16T05:24:55;3.28;;;2.33;;
17844;SDS011;9047;53.486;10.218;2022-10-16T05:27:22;5.10;;;2.22;;
17844;SDS011;9047;53.486;10.218;2022-10-16T05:29:49;5.60;;;2.40;;
17844;SDS011;9047;53.486;10.218;2022-10-16T05:32:16;4.13;;;2.25;;
17844;SDS011;9047;53.486;10.218;2022-10-16T05:34:45;4.63;;;2.60;;
17844;SDS011;9047;53.486;10.218;2022-10-16T05:37:12;4.95;;;2.10;;
17844;SDS011;9047;53.486;10.218;2022-10-16T05:39:39;5.13;;;2.35;;
17844;SDS011;9047;53.486;10.218;2022-10-16T05:42:06;6.22;;;2.50;;
17844;SDS011;9047;53.486;10.218;2022-10-16T05:44:33;10.20;;;2.70;;
17844;SDS011;9047;53.486;10.218;2022-10-16T05:47:03;5.20;;;2.40;;
17844;SDS011;9047;53.486;10.218;2022-10-16T05:49:32;4.97;;;2.22;;
17844;SDS011;9047;53.486;10.218;2022-10-16T05:52:01;4.25;;;2.35;;
17844;SDS011;9047;53.486;10.218;2022-10-16T05:54:30;5.43;;;2.50;;
17844;SDS011;9047;53.486;10.218;2022-10-16T05:56:57;5.95;;;2.30;;
17844;SDS011;9047;53.486;10.218;2022-10-16T05:59:32;3.88;;;2.30;;
17844;SDS011;9047;53.486;10.218;2022-10-16T06:01:59;6.90;;;2.50;;
17844;SDS011;9047;53.486;10.218;2022-10-16T06:04:31;5.63;;;2.60;;
17844;SDS011;9047;53.486;10.218;2022-10-16T06:07:03;4.30;;;2.50;;
17844;SDS011;9047;53.486;10.218;2022-10-16T06:09:32;4.78;;;2.78;;
17844;SDS011;9047;53.486;10.218;2022-10-16T06:11:59;4.97;;;2.38;;
17844;SDS011;9047;53.486;10.218;2022-10-16T06:14:26;5.50;;;2.50;;
17844;SDS011;9047;53.486;10.218;2022-10-16T06:16:53;7.55;;;2.67;;
17844;SDS011;9047;53.486;10.218;2022-10-16T06:19:23;5.60;;;2.58;;
17844;SDS011;9047;53.486;10.218;2022-10-16T06:21:50;9.38;;;3.10;;
17844;SDS011;9047;53.486;10.218;2022-10-16T06:24:21;7.93;;;2.90;;
17844;SDS011;9047;53.486;10.218;2022-10-16T06:26:51;4.93;;;2.90;;
17844;SDS011;9047;53.486;10.218;2022-10-16T06:29:18;8.63;;;3.42;;
17844;SDS011;9047;53.486;10.218;2022-10-16T06:31:50;5.78;;;3.35;;
17844;SDS011;9047;53.486;10.218;2022-10-16T06:34:19;6.80;;;3.92;;
17844;SDS011;9047;53.486;10.218;2022-10-16T06:36:46;7.82;;;3.35;;
17844;SDS011;9047;53.486;10.218;2022-10-16T06:39:13;8.23;;;3.75;;
17844;SDS011;9047;53.486;10.218;2022-10-16T06:41:41;7.30;;;3.38;;
17844;SDS011;9047;53.486;10.218;2022-10-16T06:44:08;5.72;;;3.30;;
17844;SDS011;9047;53.486;10.218;2022-10-16T06:46:36;9.88;;;3.90;;
17844;SDS011;9047;53.486;10.218;2022-10-16T06:49:04;7.10;;;4.10;;
17844;SDS011;9047;53.486;10.218;2022-10-16T06:51:31;8.35;;;4.30;;
17844;SDS011;9047;53.486;10.218;2022-10-16T06:54:02;7.57;;;4.18;;
17844;SDS011;9047;53.486;10.218;2022-10-16T06:56:32;8.38;;;4.63;;
17844;SDS011;9047;53.486;10.218;2022-10-16T06:59:00;8.70;;;4.70;;
17844;SDS011;9047;53.486;10.218;2022-10-16T07:01:34;7.43;;;4.50;;
17844;SDS011;9047;53.486;10.218;2022-10-16T07:04:01;9.57;;;5.15;;
17844;SDS011;9047;53.486;10.218;2022-10-16T07:06:32;10.70;;;5.20;;
17844;SDS011;9047;53.486;10.218;2022-10-16T07:09:00;11.98;;;5.68;;
17844;SDS011;9047;53.486;10.218;2022-10-16T07:11:29;7.22;;;4.95;;
17844;SDS011;9047;53.486;10.218;2022-10-16T07:13:56;7.55;;;4.40;;
17844;SDS011;9047;53.486;10.218;2022-10-16T07:16:25;10.20;;;5.10;;
17844;SDS011;9047;53.486;10.218;2022-10-16T07:18:53;10.80;;;4.75;;
17844;SDS011;9047;53.486;10.218;2022-10-16T07:21:24;8.63;;;4.70;;
17844;SDS011;9047;53.486;10.218;2022-10-16T07:23:52;7.57;;;4.10;;
17844;SDS011;9047;53.486;10.218;2022-10-16T07:26:22;8.10;;;4.53;;
17844;SDS011;9047;53.486;10.218;2022-10-16T07:28:50;8.93;;;3.78;;
17844;SDS011;9047;53.486;10.218;2022-10-16T07:31:19;7.43;;;3.50;;
17844;SDS011;9047;53.486;10.218;2022-10-16T07:33:51;7.95;;;4.10;;
17844;SDS011;9047;53.486;10.218;2022-10-16T07:36:21;7.40;;;3.55;;
17844;SDS011;9047;53.486;10.218;2022-10-16T07:38:50;9.63;;;3.78;;
17844;SDS011;9047;53.486;10.218;2022-10-16T07:41:18;6.75;;;3.08;;
17844;SDS011;9047;53.486;10.218;2022-10-16T07:43:46;7.07;;;2.88;;
17844;SDS011;9047;53.486;10.218;2022-10-16T07:46:13;6.07;;;2.88;;
17844;SDS011;9047;53.486;10.218;2022-10-16T07:48:44;5.70;;;2.80;;
17844;SDS011;9047;53.486;10.218;2022-10-16T07:51:14;5.20;;;2.50;;
17844;SDS011;9047;53.486;10.218;2022-10-16T07:53:42;5.72;;;2.60;;
17844;SDS011;9047;53.486;10.218;2022-10-16T07:56:09;5.65;;;2.50;;
17844;SDS011;9047;53.486;10.218;2022-10-16T07:58:36;3.47;;;2.10;;
17844;SDS011;9047;53.486;10.218;2022-10-16T08:01:04;5.88;;;2.30;;
17844;SDS011;9047;53.486;10.218;2022-10-16T08:03:32;4.28;;;2.20;;
17844;SDS011;9047;53.486;10.218;2022-10-16T08:05:59;3.92;;;2.33;;
17844;SDS011;9047;53.486;10.218;2022-10-16T08:08:31;4.32;;;2.08;;
17844;SDS011;9047;53.486;10.218;2022-10-16T08:11:00;4.93;;;2.40;;
17844;SDS011;9047;53.486;10.218;2022-10-16T08:13:28;3.45;;;1.65;;
17844;SDS011;9047;53.486;10.218;2022-10-16T08:15:55;4.15;;;2.17;;
17844;SDS011;9047;53.486;10.218;2022-10-16T08:18:22;2.35;;;1.85;;
17844;SDS011;9047;53.486;10.218;2022-10-16T08:20:54;4.45;;;1.92;;
17844;SDS011;9047;53.486;10.218;2022-10-16T08:23:22;3.30;;;1.90;;
17844;SDS011;9047;53.486;10.218;2022-10-16T08:25:52;3.42;;;1.75;;
17844;SDS011;9047;53.486;10.218;2022-10-16T08:28:19;2.90;;;1.95;;
17844;SDS011;9047;53.486;10.218;2022-10-16T08:30:46;6.28;;;1.75;;
17844;SDS011;9047;53.486;10.218;2022-10-16T08:33:13;5.70;;;2.03;;
17844;SDS011;9047;53.486;10.218;2022-10-16T08:35:40;5.45;;;1.90;;
17844;SDS011;9047;53.486;10.218;2022-10-16T08:38:07;2.80;;;1.70;;
17844;SDS011;9047;53.486;10.218;2022-10-16T08:40:35;3.28;;;1.60;;
17844;SDS011;9047;53.486;10.218;2022-10-16T08:43:10;2.72;;;1.88;;
17844;SDS011;9047;53.486;10.218;2022-10-16T08:46:04;3.28;;;1.63;;
17844;SDS011;9047;53.486;10.218;2022-10-16T08:48:49;2.90;;;1.58;;
17844;SDS011;9047;53.486;10.218;2022-10-16T08:51:18;4.13;;;1.80;;
17844;SDS011;9047;53.486;10.218;2022-10-16T08:53:49;7.75;;;1.90;;
17844;SDS011;9047;53.486;10.218;2022-10-16T08:56:19;3.63;;;1.73;;
17844;SDS011;9047;53.486;10.218;2022-10-16T08:58:47;4.03;;;1.67;;
17844;SDS011;9047;53.486;10.218;2022-10-16T09:01:15;5.05;;;1.58;;
17844;SDS011;9047;53.486;10.218;2022-10-16T09:03:49;2.47;;;1.50;;
17844;SDS011;9047;53.486;10.218;2022-10-16T09:06:53;3.70;;;1.60;;
17844;SDS011;9047;53.486;10.218;2022-10-16T09:09:27;5.65;;;1.40;;
17844;SDS011;9047;53.486;10.218;2022-10-16T09:12:10;3.78;;;1.38;;
17844;SDS011;9047;53.486;10.218;2022-10-16T09:14:49;4.18;;;1.50;;
17844;SDS011;9047;53.486;10.218;2022-10-16T09:17:27;2.90;;;1.42;;
17844;SDS011;9047;53.486;10.218;2022-10-16T09:20:06;3.53;;;1.20;;
17844;SDS011;9047;53.486;10.218;2022-10-16T09:22:43;5.88;;;1.40;;
17844;SDS011;9047;53.486;10.218;2022-10-16T09:25:11;3.15;;;1.27;;
17844;SDS011;9047;53.486;10.218;2022-10-16T09:27:39;4.75;;;1.70;;
17844;SDS011;9047;53.486;10.218;2022-10-16T09:30:25;3.78;;;1.27;;
17844;SDS011;9047;53.486;10.218;2022-10-16T09:32:54;3.78;;;1.38;;
17844;SDS011;9047;53.486;10.218;2022-10-16T09:35:27;2.40;;;1.30;;
17844;SDS011;9047;53.486;10.218;2022-10-16T09:38:12;3.63;;;1.60;;
17844;SDS011;9047;53.486;10.218;2022-10-16T09:40:53;2.17;;;1.30;;
17844;SDS011;9047;53.486;10.218;2022-10-16T09:43:24;2.45;;;1.23;;
17844;SDS011;9047;53.486;10.218;2022-10-16T09:45:58;4.32;;;1.20;;
17844;SDS011;9047;53.486;10.218;2022-10-16T09:48:27;1.38;;;0.90;;
17844;SDS011;9047;53.486;10.218;2022-10-16T09:51:16;4.78;;;1.40;;
17844;SDS011;9047;53.486;10.218;2022-10-16T09:53:46;4.15;;;1.30;;
17844;SDS011;9047;53.486;10.218;2022-10-16T09:56:21;2.17;;;0.90;;
17844;SDS011;9047;53.486;10.218;2022-10-16T09:58:51;4.63;;;1.00;;
17844;SDS011;9047;53.486;10.218;2022-10-16T10:01:36;3.00;;;1.05;;
17844;SDS011;9047;53.486;10.218;2022-10-16T10:04:04;2.70;;;0.98;;
17844;SDS011;9047;53.486;10.218;2022-10-16T10:06:36;4.07;;;1.00;;
17844;SDS011;9047;53.486;10.218;2022-10-16T10:09:20;4.80;;;1.40;;
17844;SDS011;9047;53.486;10.218;2022-10-16T10:11:57;4.00;;;1.15;;
17844;SDS011;9047;53.486;10.218;2022-10-16T10:14:31;2.85;;;1.00;;
17844;SDS011;9047;53.486;10.218;2022-10-16T10:17:11;4.78;;;1.30;;
17844;SDS011;9047;53.486;10.218;2022-10-16T10:19:44;4.70;;;1.10;;
17844;SDS011;9047;53.486;10.218;2022-10-16T10:25:38;2.53;;;1.25;;
17844;SDS011;9047;53.486;10.218;2022-10-16T10:28:27;3.97;;;1.00;;
17844;SDS011;9047;53.486;10.218;2022-10-16T10:31:10;2.50;;;1.10;;
17844;SDS011;9047;53.486;10.218;2022-10-16T10:33:45;2.70;;;1.00;;
17844;SDS011;9047;53.486;10.218;2022-10-16T10:36:26;3.95;;;0.98;;
17844;SDS011;9047;53.486;10.218;2022-10-16T10:39:02;2.63;;;1.17;;
17844;SDS011;9047;53.486;10.218;2022-10-16T10:44:52;5.03;;;1.40;;
17844;SDS011;9047;53.486;10.218;2022-10-16T10:47:42;6.78;;;3.97;;
17844;SDS011;9047;53.486;10.218;2022-10-16T10:50:22;8.27;;;3.20;;
17844;SDS011;9047;53.486;10.218;2022-10-16T10:53:04;7.07;;;1.60;;
17844;SDS011;9047;53.486;10.218;2022-10-16T10:55:39;7.90;;;2.55;;
17844;SDS011;9047;53.486;10.218;2022-10-16T10:58:29;3.63;;;1.40;;
17844;SDS011;9047;53.486;10.218;2022-10-16T11:01:10;4.50;;;1.73;;
17844;SDS011;9047;53.486;10.218;2022-10-16T11:03:47;4.15;;;1.60;;
17844;SDS011;9047;53.486;10.218;2022-10-16T11:06:46;7.28;;;1.40;;
17844;SDS011;9047;53.486;10.218;2022-10-16T11:09:17;3.30;;;0.80;;
17844;SDS011;9047;53.486;10.218;2022-10-16T11:11:52;6.90;;;1.60;;
17844;SDS011;9047;53.486;10.218;2022-10-16T11:14:27;5.10;;;1.45;;
17844;SDS011;9047;53.486;10.218;2022-10-16T11:17:00;4.65;;;1.23;;
17844;SDS011;9047;53.486;10.218;2022-10-16T11:19:46;2.25;;;0.63;;
17844;SDS011;9047;53.486;10.218;2022-10-16T11:22:23;3.95;;;0.90;;
17844;SDS011;9047;53.486;10.218;2022-10-16T11:24:55;3.00;;;1.00;;
17844;SDS011;9047;53.486;10.218;2022-10-16T11:27:32;4.60;;;0.90;;
17844;SDS011;9047;53.486;10.218;2022-10-16T11:30:11;4.32;;;1.00;;
17844;SDS011;9047;53.486;10.218;2022-10-16T11:32:49;2.75;;;0.80;;
17844;SDS011;9047;53.486;10.218;2022-10-16T11:35:32;2.67;;;0.95;;
17844;SDS011;9047;53.486;10.218;2022-10-16T11:38:14;4.63;;;1.40;;
17844;SDS011;9047;53.486;10.218;2022-10-16T11:40:54;5.90;;;1.67;;
17844;SDS011;9047;53.486;10.218;2022-10-16T11:46:21;5.75;;;1.50;;
17844;SDS011;9047;53.486;10.218;2022-10-16T11:48:55;5.50;;;1.40;;
17844;SDS011;9047;53.486;10.218;2022-10-16T11:51:32;4.25;;;1.40;;
17844;SDS011;9047;53.486;10.218;2022-10-16T11:54:13;5.65;;;2.17;;
17844;SDS011;9047;53.486;10.218;2022-10-16T11:56:48;5.38;;;2.38;;
17844;SDS011;9047;53.486;10.218;2022-10-16T11:59:23;3.40;;;2.03;;
17844;SDS011;9047;53.486;10.218;2022-10-16T12:02:00;5.45;;;1.77;;
17844;SDS011;9047;53.486;10.218;2022-10-16T12:04:49;5.95;;;2.55;;
17844;SDS011;9047;53.486;10.218;2022-10-16T12:07:27;5.47;;;1.50;;
17844;SDS011;9047;53.486;10.218;2022-10-16T12:10:16;4.03;;;1.55;;
17844;SDS011;9047;53.486;10.218;2022-10-16T12:12:47;3.95;;;1.05;;
17844;SDS011;9047;53.486;10.218;2022-10-16T12:15:18;2.97;;;0.98;;
17844;SDS011;9047;53.486;10.218;2022-10-16T12:17:48;4.63;;;0.80;;
17844;SDS011;9047;53.486;10.218;2022-10-16T12:20:24;3.08;;;1.00;;
17844;SDS011;9047;53.486;10.218;2022-10-16T12:22:53;1.55;;;0.90;;
17844;SDS011;9047;53.486;10.218;2022-10-16T12:25:24;4.25;;;1.10;;
17844;SDS011;9047;53.486;10.218;2022-10-16T12:27:54;2.95;;;0.95;;
17844;SDS011;9047;53.486;10.218;2022-10-16T12:30:30;6.55;;;1.40;;
17844;SDS011;9047;53.486;10.218;2022-10-16T12:32:59;4.15;;;1.27;;
17844;SDS011;9047;53.486;10.218;2022-10-16T12:35:29;3.70;;;1.30;;
17844;SDS011;9047;53.486;10.218;2022-10-16T12:38:06;2.88;;;1.30;;
17844;SDS011;9047;53.486;10.218;2022-10-16T12:40:40;3.03;;;1.00;;
17844;SDS011;9047;53.486;10.218;2022-10-16T12:46:20;3.80;;;0.90;;
17844;SDS011;9047;53.486;10.218;2022-10-16T12:48:50;3.58;;;1.02;;
17844;SDS011;9047;53.486;10.218;2022-10-16T12:51:24;4.85;;;1.00;;
17844;SDS011;9047;53.486;10.218;2022-10-16T12:54:00;4.75;;;0.93;;
17844;SDS011;9047;53.486;10.218;2022-10-16T12:56:38;3.85;;;1.00;;
17844;SDS011;9047;53.486;10.218;2022-10-16T12:59:14;6.85;;;0.93;;
17844;SDS011;9047;53.486;10.218;2022-10-16T13:01:56;4.13;;;0.80;;
17844;SDS011;9047;53.486;10.218;2022-10-16T13:04:47;3.47;;;1.10;;
17844;SDS011;9047;53.486;10.218;2022-10-16T13:07:33;3.63;;;1.20;;
17844;SDS011;9047;53.486;10.218;2022-10-16T13:10:14;4.50;;;1.10;;
17844;SDS011;9047;53.486;10.218;2022-10-16T13:13:02;3.05;;;1.00;;
17844;SDS011;9047;53.486;10.218;2022-10-16T13:15:57;7.30;;;2.15;;
17844;SDS011;9047;53.486;10.218;2022-10-16T13:18:34;3.00;;;1.02;;
17844;SDS011;9047;53.486;10.218;2022-10-16T13:21:29;4.38;;;0.93;;
17844;SDS011;9047;53.486;10.218;2022-10-16T13:24:08;5.20;;;0.80;;
17844;SDS011;9047;53.486;10.218;2022-10-16T13:26:46;2.80;;;0.80;;
17844;SDS011;9047;53.486;10.218;2022-10-16T13:29:22;6.78;;;1.02;;
17844;SDS011;9047;53.486;10.218;2022-10-16T13:31:49;2.83;;;0.90;;
17844;SDS011;9047;53.486;10.218;2022-10-16T13:34:19;4.15;;;0.90;;
17844;SDS011;9047;53.486;10.218;2022-10-16T13:36:49;5.15;;;1.02;;
17844;SDS011;9047;53.486;10.218;2022-10-16T13:39:21;3.72;;;0.88;;
17844;SDS011;9047;53.486;10.218;2022-10-16T13:42:05;4.57;;;1.00;;
17844;SDS011;9047;53.486;10.218;2022-10-16T13:44:50;4.70;;;1.17;;
17844;SDS011;9047;53.486;10.218;2022-10-16T13:47:25;5.00;;;1.00;;
17844;SDS011;9047;53.486;10.218;2022-10-16T13:49:58;3.78;;;0.98;;
17844;SDS011;9047;53.486;10.218;2022-10-16T13:52:30;8.98;;;1.27;;
17844;SDS011;9047;53.486;10.218;2022-10-16T13:55:12;5.05;;;1.20;;
17844;SDS011;9047;53.486;10.218;2022-10-16T13:57:42;2.35;;;0.80;;
17844;SDS011;9047;53.486;10.218;2022-10-16T14:00:23;3.15;;;1.00;;
17844;SDS011;9047;53.486;10.218;2022-10-16T14:02:57;2.53;;;0.88;;
17844;SDS011;9047;53.486;10.218;2022-10-16T14:05:28;3.97;;;1.17;;
17844;SDS011;9047;53.486;10.218;2022-10-16T14:07:58;4.72;;;1.00;;
17844;SDS011;9047;53.486;10.218;2022-10-16T14:10:30;8.10;;;1.13;;
17844;SDS011;9047;53.486;10.218;2022-10-16T14:13:01;3.22;;;1.00;;
17844;SDS011;9047;53.486;10.218;2022-10-16T14:15:35;3.50;;;0.82;;
17844;SDS011;9047;53.486;10.218;2022-10-16T14:18:03;5.28;;;1.00;;
17844;SDS011;9047;53.486;10.218;2022-10-16T14:20:32;5.15;;;1.00;;
17844;SDS011;9047;53.486;10.218;2022-10-16T14:23:04;6.60;;;1.00;;
17844;SDS011;9047;53.486;10.218;2022-10-16T14:25:49;3.35;;;1.08;;
17844;SDS011;9047;53.486;10.218;2022-10-16T14:28:18;2.70;;;0.90;;
17844;SDS011;9047;53.486;10.218;2022-10-16T14:30:51;3.90;;;1.10;;
17844;SDS011;9047;53.486;10.218;2022-10-16T14:33:21;2.28;;;0.95;;
17844;SDS011;9047;53.486;10.218;2022-10-16T14:36:00;3.22;;;0.98;;
17844;SDS011;9047;53.486;10.218;2022-10-16T14:38:32;5.22;;;1.45;;
17844;SDS011;9047;53.486;10.218;2022-10-16T14:41:11;3.45;;;0.80;;
17844;SDS011;9047;53.486;10.218;2022-10-16T14:43:39;3.90;;;1.08;;
17844;SDS011;9047;53.486;10.218;2022-10-16T14:46:16;5.30;;;1.30;;
17844;SDS011;9047;53.486;10.218;2022-10-16T14:48:46;2.90;;;0.95;;
17844;SDS011;9047;53.486;10.218;2022-10-16T14:51:19;2.33;;;0.60;;
17844;SDS011;9047;53.486;10.218;2022-10-16T14:53:49;3.72;;;1.00;;
17844;SDS011;9047;53.486;10.218;2022-10-16T14:56:17;3.40;;;1.02;;
17844;SDS011;9047;53.486;10.218;2022-10-16T14:58:46;3.33;;;0.80;;
17844;SDS011;9047;53.486;10.218;2022-10-16T15:01:16;4.50;;;1.20;;
17844;SDS011;9047;53.486;10.218;2022-10-16T15:03:46;4.57;;;1.10;;
17844;SDS011;9047;53.486;10.218;2022-10-16T15:06:14;3.25;;;0.90;;
17844;SDS011;9047;53.486;10.218;2022-10-16T15:08:43;3.83;;;0.90;;
17844;SDS011;9047;53.486;10.218;2022-10-16T15:11:12;3.95;;;0.90;;
17844;SDS011;9047;53.486;10.218;2022-10-16T15:13:41;4.32;;;0.88;;
17844;SDS011;9047;53.486;10.218;2022-10-16T15:16:12;3.88;;;1.10;;
17844;SDS011;9047;53.486;10.218;2022-10-16T15:18:43;2.92;;;1.00;;
17844;SDS011;9047;53.486;10.218;2022-10-16T15:21:12;4.43;;;1.50;;
17844;SDS011;9047;53.486;10.218;2022-10-16T15:23:56;4.63;;;0.90;;
17844;SDS011;9047;53.486;10.218;2022-10-16T15:26:28;4.93;;;1.00;;
17844;SDS011;9047;53.486;10.218;2022-10-16T15:28:56;2.97;;;1.05;;